createdAt,value
2023-01-11T00:06:17.906Z,4
2023-01-11T00:35:38.632Z,4
2023-01-11T01:04:55.906Z,3
2023-01-11T01:34:14.974Z,6
2023-01-11T02:03:40.289Z,1
2023-01-11T02:33:07.904Z,4
2023-01-11T03:02:29.780Z,4
2023-01-11T03:31:47.209Z,3
2023-01-11T04:01:10.870Z,3
2023-01-11T04:30:28.695Z,3
2023-01-11T04:59:49.122Z,3
2023-01-11T05:29:12.618Z,1
2023-01-11T05:58:27.736Z,1
2023-01-11T06:27:44.999Z,3
2023-01-11T06:57:04.374Z,3
2023-01-11T07:26:22.740Z,3
2023-01-11T07:55:32.410Z,2
2023-01-11T08:24:54.710Z,3
2023-01-11T08:54:12.969Z,3
2023-01-11T09:23:35.399Z,3
2023-01-11T09:52:46.849Z,3
2023-01-11T10:22:05.174Z,5
2023-01-11T10:51:19.068Z,4
2023-01-11T11:20:41.586Z,3
2023-01-11T11:50:04.439Z,4
2023-01-11T12:19:28.354Z,4
2023-01-11T12:48:54.688Z,6
2023-01-11T13:18:18.123Z,6
2023-01-11T13:47:39.227Z,6
2023-01-11T14:16:58.145Z,6
2023-01-11T14:46:19.979Z,7
2023-01-11T15:15:31.310Z,5
2023-01-11T15:44:38.216Z,10
2023-01-11T16:13:42.461Z,9
2023-01-11T16:42:58.363Z,12
2023-01-11T17:12:15.477Z,14
2023-01-11T17:41:30.170Z,6
2023-01-11T18:10:38.549Z,9
2023-01-11T18:39:59.406Z,4
2023-01-11T19:09:18.994Z,6
2023-01-11T19:38:39.868Z,6
2023-01-11T20:07:59.876Z,10
2023-01-11T20:37:22.140Z,6
2023-01-11T21:06:16.567Z,7
2023-01-11T21:35:20.810Z,7
2023-01-11T22:04:35.340Z,7
2023-01-11T22:33:39.158Z,9
2023-01-11T23:02:59.486Z,7
2023-01-11T23:32:01.098Z,7
